sensor_id;sensor_type;location;lat;lon;timestamp;P1;durP1;ratioP1;P2;durP2;ratioP2
18881;SDS011;9573;50.948;11.600;2023-02-12T00:00:07;48.60;;;17.47;;
18881;SDS011;9573;50.948;11.600;2023-02-12T00:02:37;42.70;;;16.83;;
18881;SDS011;9573;50.948;11.600;2023-02-12T00:05:04;45.30;;;16.17;;
18881;SDS011;9573;50.948;11.600;2023-02-12T00:07:32;45.03;;;15.33;;
18881;SDS011;9573;50.948;11.600;2023-02-12T00:10:00;44.93;;;16.27;;
18881;SDS011;9573;50.948;11.600;2023-02-12T00:12:27;48.10;;;17.17;;
18881;SDS011;9573;50.948;11.600;2023-02-12T00:14:54;44.27;;;15.27;;
18881;SDS011;9573;50.948;11.600;2023-02-12T00:17:21;43.30;;;15.90;;
18881;SDS011;9573;50.948;11.600;2023-02-12T00:19:48;42.67;;;15.53;;
18881;SDS011;9573;50.948;11.600;2023-02-12T00:22:16;46.03;;;15.67;;
18881;SDS011;9573;50.948;11.600;2023-02-12T00:24:43;41.67;;;15.17;;
18881;SDS011;9573;50.948;11.600;2023-02-12T00:27:11;44.93;;;15.00;;
18881;SDS011;9573;50.948;11.600;2023-02-12T00:29:38;43.03;;;16.13;;
18881;SDS011;9573;50.948;11.600;2023-02-12T00:32:06;43.20;;;15.03;;
18881;SDS011;9573;50.948;11.600;2023-02-12T00:34:33;42.90;;;15.40;;
18881;SDS011;9573;50.948;11.600;2023-02-12T00:37:00;41.27;;;15.43;;
18881;SDS011;9573;50.948;11.600;2023-02-12T00:39:27;42.00;;;15.13;;
18881;SDS011;9573;50.948;11.600;2023-02-12T00:41:54;36.20;;;13.00;;
18881;SDS011;9573;50.948;11.600;2023-02-12T00:44:22;42.77;;;14.67;;
18881;SDS011;9573;50.948;11.600;2023-02-12T00:46:49;35.33;;;12.00;;
18881;SDS011;9573;50.948;11.600;2023-02-12T00:49:16;38.93;;;14.37;;
18881;SDS011;9573;50.948;11.600;2023-02-12T00:51:44;36.00;;;11.93;;
18881;SDS011;9573;50.948;11.600;2023-02-12T00:54:11;39.67;;;13.83;;
18881;SDS011;9573;50.948;11.600;2023-02-12T00:56:38;37.70;;;15.03;;
18881;SDS011;9573;50.948;11.600;2023-02-12T00:59:05;36.97;;;13.17;;
18881;SDS011;9573;50.948;11.600;2023-02-12T01:01:34;40.57;;;14.00;;
18881;SDS011;9573;50.948;11.600;2023-02-12T01:04:01;41.87;;;13.57;;
18881;SDS011;9573;50.948;11.600;2023-02-12T01:06:29;36.40;;;12.10;;
18881;SDS011;9573;50.948;11.600;2023-02-12T01:08:56;37.20;;;12.57;;
18881;SDS011;9573;50.948;11.600;2023-02-12T01:11:23;33.20;;;11.70;;
18881;SDS011;9573;50.948;11.600;2023-02-12T01:13:50;37.63;;;13.07;;
18881;SDS011;9573;50.948;11.600;2023-02-12T01:16:18;34.77;;;12.33;;
18881;SDS011;9573;50.948;11.600;2023-02-12T01:18:50;37.23;;;13.43;;
18881;SDS011;9573;50.948;11.600;2023-02-12T01:21:19;37.17;;;13.80;;
18881;SDS011;9573;50.948;11.600;2023-02-12T01:23:48;39.90;;;13.10;;
18881;SDS011;9573;50.948;11.600;2023-02-12T01:26:16;35.53;;;11.73;;
18881;SDS011;9573;50.948;11.600;2023-02-12T01:28:48;35.97;;;12.70;;
18881;SDS011;9573;50.948;11.600;2023-02-12T01:31:18;37.47;;;12.80;;
18881;SDS011;9573;50.948;11.600;2023-02-12T01:33:46;35.87;;;12.70;;
18881;SDS011;9573;50.948;11.600;2023-02-12T01:36:16;37.87;;;13.50;;
18881;SDS011;9573;50.948;11.600;2023-02-12T01:38:43;32.50;;;11.03;;
18881;SDS011;9573;50.948;11.600;2023-02-12T01:41:11;37.27;;;12.60;;
18881;SDS011;9573;50.948;11.600;2023-02-12T01:43:41;38.27;;;13.53;;
18881;SDS011;9573;50.948;11.600;2023-02-12T01:46:11;35.07;;;11.87;;
18881;SDS011;9573;50.948;11.600;2023-02-12T01:48:40;38.40;;;13.30;;
18881;SDS011;9573;50.948;11.600;2023-02-12T01:51:10;35.73;;;12.67;;
18881;SDS011;9573;50.948;11.600;2023-02-12T01:53:46;32.90;;;11.93;;
18881;SDS011;9573;50.948;11.600;2023-02-12T01:56:17;37.50;;;12.80;;
18881;SDS011;9573;50.948;11.600;2023-02-12T01:58:44;33.60;;;11.53;;
18881;SDS011;9573;50.948;11.600;2023-02-12T02:01:15;34.13;;;11.67;;
18881;SDS011;9573;50.948;11.600;2023-02-12T02:03:48;35.33;;;12.67;;
18881;SDS011;9573;50.948;11.600;2023-02-12T02:06:20;36.13;;;12.03;;
18881;SDS011;9573;50.948;11.600;2023-02-12T02:08:51;38.63;;;13.10;;
18881;SDS011;9573;50.948;11.600;2023-02-12T02:11:19;32.90;;;11.43;;
18881;SDS011;9573;50.948;11.600;2023-02-12T02:14:03;37.13;;;12.67;;
18881;SDS011;9573;50.948;11.600;2023-02-12T02:16:49;34.47;;;11.67;;
18881;SDS011;9573;50.948;11.600;2023-02-12T02:19:29;35.03;;;12.17;;
18881;SDS011;9573;50.948;11.600;2023-02-12T02:22:18;35.87;;;12.40;;
18881;SDS011;9573;50.948;11.600;2023-02-12T02:24:58;35.73;;;12.10;;
18881;SDS011;9573;50.948;11.600;2023-02-12T02:28:00;35.30;;;12.17;;
18881;SDS011;9573;50.948;11.600;2023-02-12T02:30:41;37.23;;;13.40;;
18881;SDS011;9573;50.948;11.600;2023-02-12T02:33:20;36.53;;;12.50;;
18881;SDS011;9573;50.948;11.600;2023-02-12T02:36:00;35.57;;;12.43;;
18881;SDS011;9573;50.948;11.600;2023-02-12T02:38:40;34.93;;;13.10;;
18881;SDS011;9573;50.948;11.600;2023-02-12T02:41:14;35.83;;;13.27;;
18881;SDS011;9573;50.948;11.600;2023-02-12T02:43:47;38.57;;;12.90;;
18881;SDS011;9573;50.948;11.600;2023-02-12T02:46:19;37.13;;;13.17;;
18881;SDS011;9573;50.948;11.600;2023-02-12T02:48:55;37.90;;;14.10;;
18881;SDS011;9573;50.948;11.600;2023-02-12T02:51:26;39.30;;;13.70;;
18881;SDS011;9573;50.948;11.600;2023-02-12T02:54:00;37.03;;;13.43;;
18881;SDS011;9573;50.948;11.600;2023-02-12T02:56:31;39.27;;;14.13;;
18881;SDS011;9573;50.948;11.600;2023-02-12T02:59:04;37.97;;;13.43;;
18881;SDS011;9573;50.948;11.600;2023-02-12T03:01:38;38.07;;;13.87;;
18881;SDS011;9573;50.948;11.600;2023-02-12T03:04:11;36.83;;;13.60;;
18881;SDS011;9573;50.948;11.600;2023-02-12T03:06:45;41.17;;;14.60;;
18881;SDS011;9573;50.948;11.600;2023-02-12T03:09:18;39.43;;;14.90;;
18881;SDS011;9573;50.948;11.600;2023-02-12T03:11:52;38.93;;;13.23;;
18881;SDS011;9573;50.948;11.600;2023-02-12T03:14:26;39.03;;;14.53;;
18881;SDS011;9573;50.948;11.600;2023-02-12T03:16:58;38.90;;;15.13;;
18881;SDS011;9573;50.948;11.600;2023-02-12T03:19:30;40.23;;;14.13;;
18881;SDS011;9573;50.948;11.600;2023-02-12T03:22:02;35.33;;;13.00;;
18881;SDS011;9573;50.948;11.600;2023-02-12T03:24:35;40.03;;;14.37;;
18881;SDS011;9573;50.948;11.600;2023-02-12T03:27:07;39.73;;;14.20;;
18881;SDS011;9573;50.948;11.600;2023-02-12T03:29:39;39.10;;;13.97;;
18881;SDS011;9573;50.948;11.600;2023-02-12T03:32:12;41.77;;;15.00;;
18881;SDS011;9573;50.948;11.600;2023-02-12T03:34:52;40.83;;;13.73;;
18881;SDS011;9573;50.948;11.600;2023-02-12T03:37:32;37.00;;;14.20;;
18881;SDS011;9573;50.948;11.600;2023-02-12T03:40:05;42.33;;;14.67;;
18881;SDS011;9573;50.948;11.600;2023-02-12T03:42:43;42.73;;;15.43;;
18881;SDS011;9573;50.948;11.600;2023-02-12T03:45:17;42.60;;;15.23;;
18881;SDS011;9573;50.948;11.600;2023-02-12T03:47:57;43.20;;;15.40;;
18881;SDS011;9573;50.948;11.600;2023-02-12T03:50:33;39.40;;;14.80;;
18881;SDS011;9573;50.948;11.600;2023-02-12T03:53:09;40.13;;;14.20;;
18881;SDS011;9573;50.948;11.600;2023-02-12T03:55:37;39.47;;;14.30;;
18881;SDS011;9573;50.948;11.600;2023-02-12T03:58:08;43.70;;;15.03;;
18881;SDS011;9573;50.948;11.600;2023-02-12T04:00:40;44.13;;;16.27;;
18881;SDS011;9573;50.948;11.600;2023-02-12T04:03:08;45.33;;;16.37;;
18881;SDS011;9573;50.948;11.600;2023-02-12T04:05:35;43.27;;;15.93;;
18881;SDS011;9573;50.948;11.600;2023-02-12T04:08:03;42.27;;;15.30;;
18881;SDS011;9573;50.948;11.600;2023-02-12T04:10:34;41.07;;;14.33;;
18881;SDS011;9573;50.948;11.600;2023-02-12T04:13:15;40.50;;;16.23;;
18881;SDS011;9573;50.948;11.600;2023-02-12T04:15:51;41.97;;;16.20;;
18881;SDS011;9573;50.948;11.600;2023-02-12T04:18:33;41.33;;;15.40;;
18881;SDS011;9573;50.948;11.600;2023-02-12T04:21:08;39.63;;;15.13;;
18881;SDS011;9573;50.948;11.600;2023-02-12T04:23:49;40.37;;;15.00;;
18881;SDS011;9573;50.948;11.600;2023-02-12T04:26:30;40.77;;;15.00;;
18881;SDS011;9573;50.948;11.600;2023-02-12T04:29:07;40.00;;;14.00;;
18881;SDS011;9573;50.948;11.600;2023-02-12T04:31:45;39.07;;;14.47;;
18881;SDS011;9573;50.948;11.600;2023-02-12T04:34:19;38.40;;;14.07;;
18881;SDS011;9573;50.948;11.600;2023-02-12T04:36:53;42.33;;;16.23;;
18881;SDS011;9573;50.948;11.600;2023-02-12T04:39:26;41.17;;;16.00;;
18881;SDS011;9573;50.948;11.600;2023-02-12T04:41:57;36.40;;;13.10;;
18881;SDS011;9573;50.948;11.600;2023-02-12T04:44:26;41.07;;;15.43;;
18881;SDS011;9573;50.948;11.600;2023-02-12T04:46:55;39.30;;;14.83;;
18881;SDS011;9573;50.948;11.600;2023-02-12T04:49:24;38.30;;;14.80;;
18881;SDS011;9573;50.948;11.600;2023-02-12T04:51:51;41.43;;;15.33;;
18881;SDS011;9573;50.948;11.600;2023-02-12T04:54:19;41.90;;;15.33;;
18881;SDS011;9573;50.948;11.600;2023-02-12T04:56:48;39.00;;;15.13;;
18881;SDS011;9573;50.948;11.600;2023-02-12T04:59:16;37.27;;;14.13;;
18881;SDS011;9573;50.948;11.600;2023-02-12T05:01:44;39.33;;;14.30;;
18881;SDS011;9573;50.948;11.600;2023-02-12T05:04:12;41.43;;;14.80;;
18881;SDS011;9573;50.948;11.600;2023-02-12T05:06:43;43.27;;;14.40;;
18881;SDS011;9573;50.948;11.600;2023-02-12T05:09:12;41.53;;;14.53;;
18881;SDS011;9573;50.948;11.600;2023-02-12T05:11:41;35.77;;;13.30;;
18881;SDS011;9573;50.948;11.600;2023-02-12T05:14:09;40.73;;;14.03;;
18881;SDS011;9573;50.948;11.600;2023-02-12T05:16:36;40.60;;;15.80;;
18881;SDS011;9573;50.948;11.600;2023-02-12T05:19:03;39.87;;;14.87;;
18881;SDS011;9573;50.948;11.600;2023-02-12T05:21:32;38.23;;;14.50;;
18881;SDS011;9573;50.948;11.600;2023-02-12T05:24:01;41.03;;;15.57;;
18881;SDS011;9573;50.948;11.600;2023-02-12T05:26:28;39.53;;;15.57;;
18881;SDS011;9573;50.948;11.600;2023-02-12T05:28:55;36.50;;;13.33;;
18881;SDS011;9573;50.948;11.600;2023-02-12T05:31:23;37.47;;;13.77;;
18881;SDS011;9573;50.948;11.600;2023-02-12T05:33:50;39.77;;;14.10;;
18881;SDS011;9573;50.948;11.600;2023-02-12T05:36:18;39.93;;;14.63;;
18881;SDS011;9573;50.948;11.600;2023-02-12T05:38:47;38.67;;;14.30;;
18881;SDS011;9573;50.948;11.600;2023-02-12T05:41:16;41.30;;;14.93;;
18881;SDS011;9573;50.948;11.600;2023-02-12T05:43:46;39.43;;;14.80;;
18881;SDS011;9573;50.948;11.600;2023-02-12T05:46:14;42.10;;;15.87;;
18881;SDS011;9573;50.948;11.600;2023-02-12T05:48:41;42.40;;;16.57;;
18881;SDS011;9573;50.948;11.600;2023-02-12T05:51:09;41.83;;;15.37;;
18881;SDS011;9573;50.948;11.600;2023-02-12T05:53:39;39.97;;;15.13;;
18881;SDS011;9573;50.948;11.600;2023-02-12T05:56:07;40.90;;;15.60;;
18881;SDS011;9573;50.948;11.600;2023-02-12T05:58:38;41.67;;;16.30;;
18881;SDS011;9573;50.948;11.600;2023-02-12T06:01:10;39.07;;;16.07;;
18881;SDS011;9573;50.948;11.600;2023-02-12T06:03:39;38.53;;;15.63;;
18881;SDS011;9573;50.948;11.600;2023-02-12T06:06:06;40.03;;;15.23;;
18881;SDS011;9573;50.948;11.600;2023-02-12T06:08:34;41.43;;;16.00;;
18881;SDS011;9573;50.948;11.600;2023-02-12T06:11:02;38.03;;;14.80;;
18881;SDS011;9573;50.948;11.600;2023-02-12T06:13:31;39.20;;;15.77;;
18881;SDS011;9573;50.948;11.600;2023-02-12T06:16:00;42.00;;;16.27;;
18881;SDS011;9573;50.948;11.600;2023-02-12T06:18:28;41.27;;;16.00;;
18881;SDS011;9573;50.948;11.600;2023-02-12T06:20:56;40.97;;;14.87;;
18881;SDS011;9573;50.948;11.600;2023-02-12T06:23:23;41.17;;;16.07;;
18881;SDS011;9573;50.948;11.600;2023-02-12T06:25:54;41.73;;;16.17;;
18881;SDS011;9573;50.948;11.600;2023-02-12T06:28:22;40.53;;;16.13;;
18881;SDS011;9573;50.948;11.600;2023-02-12T06:30:49;40.43;;;15.70;;
18881;SDS011;9573;50.948;11.600;2023-02-12T06:33:17;41.33;;;16.33;;
18881;SDS011;9573;50.948;11.600;2023-02-12T06:35:44;38.77;;;15.60;;
18881;SDS011;9573;50.948;11.600;2023-02-12T06:38:12;38.47;;;15.03;;
18881;SDS011;9573;50.948;11.600;2023-02-12T06:40:39;40.80;;;15.10;;
18881;SDS011;9573;50.948;11.600;2023-02-12T06:43:06;39.97;;;15.50;;
18881;SDS011;9573;50.948;11.600;2023-02-12T06:45:33;39.73;;;15.57;;
18881;SDS011;9573;50.948;11.600;2023-02-12T06:48:01;42.17;;;15.53;;
18881;SDS011;9573;50.948;11.600;2023-02-12T06:50:29;37.47;;;15.40;;
18881;SDS011;9573;50.948;11.600;2023-02-12T06:52:57;38.73;;;15.37;;
18881;SDS011;9573;50.948;11.600;2023-02-12T06:55:24;38.90;;;14.13;;
18881;SDS011;9573;50.948;11.600;2023-02-12T06:57:51;38.70;;;14.90;;
18881;SDS011;9573;50.948;11.600;2023-02-12T07:00:19;37.57;;;14.60;;
18881;SDS011;9573;50.948;11.600;2023-02-12T07:02:51;41.33;;;15.17;;
18881;SDS011;9573;50.948;11.600;2023-02-12T07:05:19;38.57;;;14.27;;
18881;SDS011;9573;50.948;11.600;2023-02-12T07:07:48;40.67;;;15.77;;
18881;SDS011;9573;50.948;11.600;2023-02-12T07:10:15;38.23;;;14.70;;
18881;SDS011;9573;50.948;11.600;2023-02-12T07:12:42;41.23;;;15.63;;
18881;SDS011;9573;50.948;11.600;2023-02-12T07:15:10;41.53;;;15.23;;
18881;SDS011;9573;50.948;11.600;2023-02-12T07:17:40;37.90;;;15.23;;
18881;SDS011;9573;50.948;11.600;2023-02-12T07:20:07;39.40;;;15.70;;
18881;SDS011;9573;50.948;11.600;2023-02-12T07:22:36;37.23;;;14.70;;
18881;SDS011;9573;50.948;11.600;2023-02-12T07:25:04;38.67;;;15.20;;
18881;SDS011;9573;50.948;11.600;2023-02-12T07:27:35;37.87;;;14.77;;
18881;SDS011;9573;50.948;11.600;2023-02-12T07:30:03;37.37;;;14.20;;
18881;SDS011;9573;50.948;11.600;2023-02-12T07:32:31;36.67;;;14.30;;
18881;SDS011;9573;50.948;11.600;2023-02-12T07:34:59;40.43;;;14.57;;
18881;SDS011;9573;50.948;11.600;2023-02-12T07:37:32;37.93;;;14.40;;
18881;SDS011;9573;50.948;11.600;2023-02-12T07:39:59;38.93;;;15.00;;
18881;SDS011;9573;50.948;11.600;2023-02-12T07:42:27;36.83;;;14.17;;
18881;SDS011;9573;50.948;11.600;2023-02-12T07:44:55;40.33;;;14.47;;
18881;SDS011;9573;50.948;11.600;2023-02-12T07:47:22;37.00;;;14.63;;
18881;SDS011;9573;50.948;11.600;2023-02-12T07:49:49;36.33;;;13.93;;
18881;SDS011;9573;50.948;11.600;2023-02-12T07:52:16;39.87;;;16.37;;
18881;SDS011;9573;50.948;11.600;2023-02-12T07:54:47;36.33;;;14.37;;
18881;SDS011;9573;50.948;11.600;2023-02-12T07:57:14;37.80;;;14.80;;
18881;SDS011;9573;50.948;11.600;2023-02-12T07:59:44;35.90;;;14.80;;
18881;SDS011;9573;50.948;11.600;2023-02-12T08:02:11;34.30;;;13.97;;
18881;SDS011;9573;50.948;11.600;2023-02-12T08:04:41;47.73;;;20.87;;
18881;SDS011;9573;50.948;11.600;2023-02-12T08:07:08;38.77;;;14.87;;
18881;SDS011;9573;50.948;11.600;2023-02-12T08:09:35;37.27;;;14.33;;
18881;SDS011;9573;50.948;11.600;2023-02-12T08:12:05;36.63;;;14.60;;
18881;SDS011;9573;50.948;11.600;2023-02-12T08:14:32;36.70;;;14.10;;
18881;SDS011;9573;50.948;11.600;2023-02-12T08:17:01;35.97;;;13.47;;
18881;SDS011;9573;50.948;11.600;2023-02-12T08:19:29;38.07;;;14.57;;
18881;SDS011;9573;50.948;11.600;2023-02-12T08:21:56;35.10;;;13.97;;
18881;SDS011;9573;50.948;11.600;2023-02-12T08:24:24;35.23;;;13.50;;
18881;SDS011;9573;50.948;11.600;2023-02-12T08:26:51;34.53;;;13.23;;
18881;SDS011;9573;50.948;11.600;2023-02-12T08:29:19;34.97;;;14.00;;
18881;SDS011;9573;50.948;11.600;2023-02-12T08:31:48;36.30;;;12.70;;
18881;SDS011;9573;50.948;11.600;2023-02-12T08:34:22;36.23;;;13.97;;
18881;SDS011;9573;50.948;11.600;2023-02-12T08:36:52;35.50;;;13.87;;
18881;SDS011;9573;50.948;11.600;2023-02-12T08:39:20;34.97;;;12.53;;
18881;SDS011;9573;50.948;11.600;2023-02-12T08:41:52;35.40;;;13.47;;
18881;SDS011;9573;50.948;11.600;2023-02-12T08:44:20;34.67;;;13.23;;
18881;SDS011;9573;50.948;11.600;2023-02-12T08:46:48;34.40;;;13.37;;
18881;SDS011;9573;50.948;11.600;2023-02-12T08:49:18;37.53;;;14.00;;
18881;SDS011;9573;50.948;11.600;2023-02-12T08:51:48;35.23;;;13.87;;
18881;SDS011;9573;50.948;11.600;2023-02-12T08:54:18;33.20;;;12.87;;
18881;SDS011;9573;50.948;11.600;2023-02-12T08:56:48;34.13;;;13.13;;
18881;SDS011;9573;50.948;11.600;2023-02-12T08:59:16;33.63;;;12.97;;
18881;SDS011;9573;50.948;11.600;2023-02-12T09:01:43;34.77;;;13.40;;
18881;SDS011;9573;50.948;11.600;2023-02-12T09:04:12;35.07;;;12.90;;
18881;SDS011;9573;50.948;11.600;2023-02-12T09:06:42;33.77;;;13.43;;
18881;SDS011;9573;50.948;11.600;2023-02-12T09:09:11;33.80;;;13.77;;
18881;SDS011;9573;50.948;11.600;2023-02-12T09:11:39;33.87;;;12.83;;
18881;SDS011;9573;50.948;11.600;2023-02-12T09:14:07;35.03;;;12.93;;
18881;SDS011;9573;50.948;11.600;2023-02-12T09:16:37;33.60;;;12.90;;
18881;SDS011;9573;50.948;11.600;2023-02-12T09:19:04;32.87;;;13.03;;
18881;SDS011;9573;50.948;11.600;2023-02-12T09:21:32;34.83;;;12.90;;
18881;SDS011;9573;50.948;11.600;2023-02-12T09:24:00;32.93;;;12.07;;
18881;SDS011;9573;50.948;11.600;2023-02-12T09:26:29;33.60;;;12.50;;
18881;SDS011;9573;50.948;11.600;2023-02-12T09:28:57;34.20;;;12.53;;
18881;SDS011;9573;50.948;11.600;2023-02-12T09:31:25;34.10;;;12.53;;
18881;SDS011;9573;50.948;11.600;2023-02-12T09:33:56;35.27;;;13.27;;
18881;SDS011;9573;50.948;11.600;2023-02-12T09:36:25;34.00;;;12.53;;
18881;SDS011;9573;50.948;11.600;2023-02-12T09:38:53;34.03;;;13.17;;
18881;SDS011;9573;50.948;11.600;2023-02-12T09:41:28;33.90;;;12.17;;
18881;SDS011;9573;50.948;11.600;2023-02-12T09:44:28;31.77;;;11.43;;
18881;SDS011;9573;50.948;11.600;2023-02-12T09:47:04;31.10;;;12.10;;
18881;SDS011;9573;50.948;11.600;2023-02-12T09:49:44;33.03;;;12.27;;
18881;SDS011;9573;50.948;11.600;2023-02-12T09:52:26;31.23;;;12.43;;
18881;SDS011;9573;50.948;11.600;2023-02-12T09:54:54;31.93;;;12.73;;
18881;SDS011;9573;50.948;11.600;2023-02-12T09:57:24;35.53;;;13.67;;
18881;SDS011;9573;50.948;11.600;2023-02-12T09:59:55;32.90;;;12.10;;
18881;SDS011;9573;50.948;11.600;2023-02-12T10:02:25;32.60;;;12.90;;
18881;SDS011;9573;50.948;11.600;2023-02-12T10:04:53;31.87;;;11.67;;
18881;SDS011;9573;50.948;11.600;2023-02-12T10:07:23;35.93;;;12.57;;
18881;SDS011;9573;50.948;11.600;2023-02-12T10:10:09;31.33;;;12.40;;
18881;SDS011;9573;50.948;11.600;2023-02-12T10:12:52;31.17;;;11.83;;
18881;SDS011;9573;50.948;11.600;2023-02-12T10:15:30;35.53;;;13.40;;
18881;SDS011;9573;50.948;11.600;2023-02-12T10:18:19;33.37;;;13.13;;
18881;SDS011;9573;50.948;11.600;2023-02-12T10:21:14;36.40;;;12.93;;
18881;SDS011;9573;50.948;11.600;2023-02-12T10:23:59;33.60;;;11.67;;
18881;SDS011;9573;50.948;11.600;2023-02-12T10:26:45;34.30;;;12.60;;
18881;SDS011;9573;50.948;11.600;2023-02-12T10:29:16;32.23;;;11.87;;
18881;SDS011;9573;50.948;11.600;2023-02-12T10:31:47;34.50;;;13.20;;
18881;SDS011;9573;50.948;11.600;2023-02-12T10:34:19;32.50;;;13.57;;
18881;SDS011;9573;50.948;11.600;2023-02-12T10:36:49;32.87;;;13.00;;
18881;SDS011;9573;50.948;11.600;2023-02-12T10:39:20;33.30;;;12.43;;
18881;SDS011;9573;50.948;11.600;2023-02-12T10:41:52;33.67;;;12.97;;
18881;SDS011;9573;50.948;11.600;2023-02-12T10:44:24;35.07;;;12.60;;
18881;SDS011;9573;50.948;11.600;2023-02-12T10:46:54;37.20;;;14.20;;
18881;SDS011;9573;50.948;11.600;2023-02-12T10:49:21;33.93;;;12.90;;
18881;SDS011;9573;50.948;11.600;2023-02-12T10:51:55;36.13;;;13.40;;
18881;SDS011;9573;50.948;11.600;2023-02-12T10:54:33;33.00;;;13.00;;
18881;SDS011;9573;50.948;11.600;2023-02-12T10:57:07;32.73;;;12.90;;
18881;SDS011;9573;50.948;11.600;2023-02-12T10:59:42;32.57;;;12.30;;
18881;SDS011;9573;50.948;11.600;2023-02-12T11:02:19;34.80;;;13.53;;
18881;SDS011;9573;50.948;11.600;2023-02-12T11:04:50;34.17;;;12.83;;
18881;SDS011;9573;50.948;11.600;2023-02-12T11:07:18;34.67;;;13.13;;
18881;SDS011;9573;50.948;11.600;2023-02-12T11:09:47;29.83;;;11.17;;
18881;SDS011;9573;50.948;11.600;2023-02-12T11:12:20;27.67;;;9.97;;
18881;SDS011;9573;50.948;11.600;2023-02-12T11:14:58;29.80;;;11.00;;
18881;SDS011;9573;50.948;11.600;2023-02-12T11:17:30;29.30;;;11.27;;
18881;SDS011;9573;50.948;11.600;2023-02-12T11:20:02;37.17;;;13.20;;
18881;SDS011;9573;50.948;11.600;2023-02-12T11:22:34;34.20;;;13.27;;
18881;SDS011;9573;50.948;11.600;2023-02-12T11:25:07;32.17;;;12.47;;
18881;SDS011;9573;50.948;11.600;2023-02-12T11:27:41;32.07;;;12.00;;
18881;SDS011;9573;50.948;11.600;2023-02-12T11:30:14;34.67;;;12.63;;
18881;SDS011;9573;50.948;11.600;2023-02-12T11:32:44;29.80;;;11.77;;
18881;SDS011;9573;50.948;11.600;2023-02-12T11:35:14;30.97;;;11.50;;
18881;SDS011;9573;50.948;11.600;2023-02-12T11:37:49;30.73;;;10.83;;
18881;SDS011;9573;50.948;11.600;2023-02-12T11:40:22;28.93;;;10.80;;
18881;SDS011;9573;50.948;11.600;2023-02-12T11:42:53;28.00;;;10.13;;
18881;SDS011;9573;50.948;11.600;2023-02-12T11:45:27;27.67;;;9.70;;
18881;SDS011;9573;50.948;11.600;2023-02-12T11:48:01;26.47;;;9.03;;
18881;SDS011;9573;50.948;11.600;2023-02-12T11:50:40;24.83;;;9.20;;
18881;SDS011;9573;50.948;11.600;2023-02-12T11:53:18;25.67;;;9.20;;
18881;SDS011;9573;50.948;11.600;2023-02-12T11:55:54;24.60;;;9.00;;
18881;SDS011;9573;50.948;11.600;2023-02-12T11:58:25;27.33;;;9.00;;
18881;SDS011;9573;50.948;11.600;2023-02-12T12:00:57;27.50;;;8.87;;
18881;SDS011;9573;50.948;11.600;2023-02-12T12:06:04;24.67;;;9.00;;
18881;SDS011;9573;50.948;11.600;2023-02-12T12:08:39;27.23;;;9.20;;
18881;SDS011;9573;50.948;11.600;2023-02-12T12:11:11;25.77;;;9.37;;
18881;SDS011;9573;50.948;11.600;2023-02-12T12:13:46;27.30;;;9.47;;
18881;SDS011;9573;50.948;11.600;2023-02-12T12:16:18;26.03;;;9.60;;
18881;SDS011;9573;50.948;11.600;2023-02-12T12:19:15;29.37;;;10.27;;
18881;SDS011;9573;50.948;11.600;2023-02-12T12:22:15;29.40;;;10.63;;
18881;SDS011;9573;50.948;11.600;2023-02-12T12:24:54;28.67;;;10.53;;
18881;SDS011;9573;50.948;11.600;2023-02-12T12:27:24;27.63;;;9.73;;
18881;SDS011;9573;50.948;11.600;2023-02-12T12:30:19;24.33;;;8.43;;
18881;SDS011;9573;50.948;11.600;2023-02-12T12:32:53;25.13;;;8.80;;
18881;SDS011;9573;50.948;11.600;2023-02-12T12:35:25;24.33;;;7.83;;
18881;SDS011;9573;50.948;11.600;2023-02-12T12:38:04;23.97;;;8.13;;
18881;SDS011;9573;50.948;11.600;2023-02-12T12:40:41;25.30;;;8.17;;
18881;SDS011;9573;50.948;11.600;2023-02-12T12:43:20;25.00;;;8.23;;
18881;SDS011;9573;50.948;11.600;2023-02-12T12:45:59;26.67;;;8.20;;
18881;SDS011;9573;50.948;11.600;2023-02-12T12:49:08;21.37;;;7.67;;
18881;SDS011;9573;50.948;11.600;2023-02-12T12:52:07;25.30;;;8.30;;
18881;SDS011;9573;50.948;11.600;2023-02-12T12:55:19;25.23;;;8.10;;
18881;SDS011;9573;50.948;11.600;2023-02-12T12:58:22;22.63;;;7.93;;
18881;SDS011;9573;50.948;11.600;2023-02-12T13:01:09;23.13;;;7.60;;
18881;SDS011;9573;50.948;11.600;2023-02-12T13:04:02;23.67;;;7.83;;
18881;SDS011;9573;50.948;11.600;2023-02-12T13:07:09;25.87;;;8.27;;
18881;SDS011;9573;50.948;11.600;2023-02-12T13:09:55;21.07;;;7.30;;
18881;SDS011;9573;50.948;11.600;2023-02-12T13:12:46;24.83;;;8.37;;
18881;SDS011;9573;50.948;11.600;2023-02-12T13:15:31;26.93;;;8.60;;
18881;SDS011;9573;50.948;11.600;2023-02-12T13:18:08;25.93;;;8.67;;
18881;SDS011;9573;50.948;11.600;2023-02-12T13:20:50;24.97;;;8.80;;
18881;SDS011;9573;50.948;11.600;2023-02-12T13:23:28;28.87;;;9.13;;
18881;SDS011;9573;50.948;11.600;2023-02-12T13:26:06;27.43;;;8.47;;
18881;SDS011;9573;50.948;11.600;2023-02-12T13:28:43;24.40;;;8.57;;
18881;SDS011;9573;50.948;11.600;2023-02-12T13:31:15;26.83;;;8.60;;
18881;SDS011;9573;50.948;11.600;2023-02-12T13:33:47;25.47;;;9.10;;
18881;SDS011;9573;50.948;11.600;2023-02-12T13:36:19;26.50;;;9.10;;
18881;SDS011;9573;50.948;11.600;2023-02-12T13:38:49;34.13;;;9.63;;
18881;SDS011;9573;50.948;11.600;2023-02-12T13:41:23;24.87;;;8.37;;
18881;SDS011;9573;50.948;11.600;2023-02-12T13:43:57;25.70;;;8.43;;
18881;SDS011;9573;50.948;11.600;2023-02-12T13:46:33;24.43;;;7.90;;
18881;SDS011;9573;50.948;11.600;2023-02-12T13:49:16;26.37;;;8.30;;
18881;SDS011;9573;50.948;11.600;2023-02-12T13:51:53;23.33;;;7.87;;
18881;SDS011;9573;50.948;11.600;2023-02-12T13:54:34;21.33;;;7.07;;
18881;SDS011;9573;50.948;11.600;2023-02-12T13:57:15;21.30;;;7.33;;
18881;SDS011;9573;50.948;11.600;2023-02-12T13:59:45;21.83;;;6.23;;
18881;SDS011;9573;50.948;11.600;2023-02-12T14:02:25;15.57;;;5.83;;
18881;SDS011;9573;50.948;11.600;2023-02-12T14:05:19;17.53;;;6.37;;
18881;SDS011;9573;50.948;11.600;2023-02-12T14:07:53;18.83;;;6.60;;
18881;SDS011;9573;50.948;11.600;2023-02-12T14:10:23;20.60;;;6.87;;
18881;SDS011;9573;50.948;11.600;2023-02-12T14:12:55;21.63;;;6.93;;
18881;SDS011;9573;50.948;11.600;2023-02-12T14:15:37;20.53;;;6.83;;
18881;SDS011;9573;50.948;11.600;2023-02-12T14:18:27;21.83;;;7.33;;
18881;SDS011;9573;50.948;11.600;2023-02-12T14:27:28;23.97;;;8.00;;
18881;SDS011;9573;50.948;11.600;2023-02-12T14:32:58;25.83;;;8.87;;
18881;SDS011;9573;50.948;11.600;2023-02-12T14:35:48;26.77;;;8.73;;
18881;SDS011;9573;50.948;11.600;2023-02-12T14:41:36;25.37;;;9.00;;
18881;SDS011;9573;50.948;11.600;2023-02-12T14:50:18;27.07;;;7.63;;
18881;SDS011;9573;50.948;11.600;2023-02-12T14:52:57;26.10;;;8.17;;
18881;SDS011;9573;50.948;11.600;2023-02-12T14:55:32;23.53;;;8.10;;
18881;SDS011;9573;50.948;11.600;2023-02-12T14:58:03;24.60;;;8.07;;
18881;SDS011;9573;50.948;11.600;2023-02-12T15:00:39;26.50;;;7.80;;
18881;SDS011;9573;50.948;11.600;2023-02-12T15:03:15;22.43;;;7.03;;
18881;SDS011;9573;50.948;11.600;2023-02-12T15:05:51;20.90;;;6.93;;
18881;SDS011;9573;50.948;11.600;2023-02-12T15:08:30;22.70;;;7.23;;
18881;SDS011;9573;50.948;11.600;2023-02-12T15:11:23;19.47;;;6.53;;
18881;SDS011;9573;50.948;11.600;2023-02-12T15:14:02;23.60;;;6.97;;
18881;SDS011;9573;50.948;11.600;2023-02-12T15:19:29;27.60;;;8.60;;